createdAt,value
2023-02-14T00:00:03.522Z,100931.56
2023-02-14T00:02:34.784Z,100937.78
2023-02-14T00:05:01.291Z,100938.59
2023-02-14T00:07:27.700Z,100931.97
2023-02-14T00:09:54.076Z,100927.75
2023-02-14T00:12:20.558Z,100925.94
2023-02-14T00:14:46.950Z,100925.25
2023-02-14T00:17:13.372Z,100925.81
2023-02-14T00:19:39.917Z,100923.03
2023-02-14T00:22:06.326Z,100922.22
2023-02-14T00:24:32.718Z,100924.06
2023-02-14T00:26:59.161Z,100922.44
2023-02-14T00:29:25.545Z,100917.03
2023-02-14T00:31:52.020Z,100915.63
2023-02-14T00:34:18.497Z,100924.56
2023-02-14T00:36:44.917Z,100915.41
2023-02-14T00:39:11.393Z,100917.59
2023-02-14T00:41:37.896Z,100924.06
2023-02-14T00:44:04.373Z,100919.50
2023-02-14T00:46:30.796Z,100921.00
2023-02-14T00:48:57.247Z,100928.84
2023-02-14T00:51:23.703Z,100925.66
2023-02-14T00:53:50.105Z,100911.78
2023-02-14T00:56:16.531Z,100923.03
2023-02-14T00:58:42.979Z,100912.47
2023-02-14T01:01:09.432Z,100917.88
2023-02-14T01:03:35.915Z,100918.13
2023-02-14T01:06:02.312Z,100918.19
2023-02-14T01:08:29.580Z,100922.63
2023-02-14T01:10:56.027Z,100918.63
2023-02-14T01:13:22.422Z,100917.22
2023-02-14T01:15:48.814Z,100914.78
2023-02-14T01:18:15.263Z,100917.38
2023-02-14T01:20:41.656Z,100916.84
2023-02-14T01:23:08.092Z,100917.06
2023-02-14T01:25:34.543Z,100915.66
2023-02-14T01:28:00.937Z,100911.56
2023-02-14T01:30:27.396Z,100915.34
2023-02-14T01:32:53.896Z,100923.69
2023-02-14T01:35:20.490Z,100921.47
2023-02-14T01:37:46.920Z,100916.31
2023-02-14T01:40:13.544Z,100918.44
2023-02-14T01:42:42.606Z,100914.34
2023-02-14T01:45:08.993Z,100915.81
2023-02-14T01:47:35.443Z,100915.09
2023-02-14T01:50:01.874Z,100912.59
2023-02-14T01:52:28.301Z,100907.69
2023-02-14T01:54:54.761Z,100904.41
2023-02-14T01:57:21.205Z,100900.31
2023-02-14T01:59:47.592Z,100899.16
2023-02-14T02:02:14.100Z,100902.09
2023-02-14T02:04:40.569Z,100901.53
2023-02-14T02:07:06.972Z,100903.41
2023-02-14T02:09:33.409Z,100894.72
2023-02-14T02:11:59.799Z,100897.69
2023-02-14T02:14:26.216Z,100897.69
2023-02-14T02:16:52.761Z,100894.13
2023-02-14T02:19:19.209Z,100893.75
2023-02-14T02:21:45.619Z,100882.66
2023-02-14T02:24:12.154Z,100890.03
2023-02-14T02:26:38.559Z,100883.72
2023-02-14T02:29:05.070Z,100894.22
2023-02-14T02:31:31.694Z,100890.47
2023-02-14T02:33:58.268Z,100889.63
2023-02-14T02:36:24.730Z,100894.22
2023-02-14T02:38:51.855Z,100890.47
2023-02-14T02:41:18.645Z,100895.53
2023-02-14T02:43:45.056Z,100893.56
2023-02-14T02:46:11.546Z,100895.69
2023-02-14T02:48:38.003Z,100895.94
2023-02-14T02:51:06.018Z,100895.09
2023-02-14T02:53:32.448Z,100894.28
2023-02-14T02:55:58.986Z,100901.59
2023-02-14T02:58:25.456Z,100894.53
2023-02-14T03:00:51.924Z,100897.31
2023-02-14T03:03:21.252Z,100897.47
2023-02-14T03:05:47.658Z,100905.09
2023-02-14T03:08:16.082Z,100905.84
2023-02-14T03:10:42.474Z,100904.00
2023-02-14T03:13:09.176Z,100907.38
2023-02-14T03:15:35.708Z,100904.25
2023-02-14T03:18:02.180Z,100904.06
2023-02-14T03:20:28.641Z,100908.38
2023-02-14T03:22:57.071Z,100905.66
2023-02-14T03:25:23.498Z,100908.34
2023-02-14T03:27:49.915Z,100911.53
2023-02-14T03:30:16.398Z,100911.72
2023-02-14T03:32:42.812Z,100908.59
2023-02-14T03:35:09.640Z,100909.31
2023-02-14T03:37:36.151Z,100905.94
2023-02-14T03:40:03.292Z,100905.53
2023-02-14T03:42:29.942Z,100906.97
2023-02-14T03:44:56.556Z,100907.66
2023-02-14T03:47:23.095Z,100906.66
2023-02-14T03:49:49.586Z,100899.94
2023-02-14T03:52:16.157Z,100900.00
2023-02-14T03:54:42.553Z,100897.06
2023-02-14T03:57:08.935Z,100902.03
2023-02-14T03:59:35.386Z,100901.53
2023-02-14T04:02:01.852Z,100902.66
2023-02-14T04:04:28.315Z,100901.06
2023-02-14T04:06:54.777Z,100904.91
2023-02-14T04:09:21.164Z,100896.22
2023-02-14T04:11:47.693Z,100892.97
2023-02-14T04:14:14.214Z,100893.75
2023-02-14T04:16:40.658Z,100888.59
2023-02-14T04:19:07.071Z,100887.22
2023-02-14T04:21:33.552Z,100894.84
2023-02-14T04:24:00.008Z,100896.75
2023-02-14T04:26:26.399Z,100900.84
2023-02-14T04:28:52.861Z,100900.56
2023-02-14T04:31:19.393Z,100896.69
2023-02-14T04:33:45.909Z,100902.13
2023-02-14T04:36:12.429Z,100898.25
2023-02-14T04:38:38.881Z,100893.84
2023-02-14T04:41:05.350Z,100893.25
2023-02-14T04:43:31.806Z,100885.03
2023-02-14T04:45:58.288Z,100880.88
2023-02-14T04:48:24.775Z,100896.34
2023-02-14T04:50:51.252Z,100893.44
2023-02-14T04:53:17.721Z,100899.53
2023-02-14T04:55:44.260Z,100901.78
2023-02-14T04:58:10.719Z,100907.81
2023-02-14T05:00:37.181Z,100907.72
2023-02-14T05:03:03.673Z,100909.03
2023-02-14T05:05:30.207Z,100908.75
2023-02-14T05:07:56.709Z,100912.53
2023-02-14T05:10:23.231Z,100907.56
2023-02-14T05:12:49.808Z,100909.44
2023-02-14T05:15:16.311Z,100909.06
2023-02-14T05:17:42.784Z,100921.91
2023-02-14T05:20:09.261Z,100916.84
2023-02-14T05:22:35.729Z,100921.56
2023-02-14T05:25:02.235Z,100914.53
2023-02-14T05:27:28.933Z,100924.09
2023-02-14T05:29:55.444Z,100923.41
2023-02-14T05:32:21.989Z,100925.66
2023-02-14T05:34:48.487Z,100937.03
2023-02-14T05:37:14.934Z,100934.00
2023-02-14T05:39:41.368Z,100931.19
2023-02-14T05:42:12.249Z,100929.63
2023-02-14T05:44:38.724Z,100938.63
2023-02-14T05:47:05.157Z,100944.00
2023-02-14T05:49:31.700Z,100948.56
2023-02-14T05:51:58.171Z,100945.13
2023-02-14T05:54:24.673Z,100952.38
2023-02-14T05:56:51.179Z,100950.09
2023-02-14T05:59:17.626Z,100957.44
2023-02-14T06:01:44.115Z,100945.41
2023-02-14T06:04:10.688Z,100956.69
2023-02-14T06:06:37.163Z,100950.06
2023-02-14T06:09:05.109Z,100953.31
2023-02-14T06:11:31.669Z,100959.09
2023-02-14T06:13:58.130Z,100958.78
2023-02-14T06:16:24.636Z,100963.34
2023-02-14T06:18:51.230Z,100967.72
2023-02-14T06:21:17.697Z,100970.22
2023-02-14T06:23:44.212Z,100973.56
2023-02-14T06:26:10.741Z,100975.06
2023-02-14T06:28:37.227Z,100978.91
2023-02-14T06:31:04.114Z,100981.88
2023-02-14T06:33:30.907Z,100975.78
2023-02-14T06:35:57.380Z,100980.88
2023-02-14T06:38:23.825Z,100981.34
2023-02-14T06:40:50.405Z,100983.97
2023-02-14T06:43:16.838Z,100986.78
2023-02-14T06:45:43.308Z,100987.22
2023-02-14T06:48:09.830Z,100985.56
2023-02-14T06:50:36.289Z,100985.75
2023-02-14T06:53:02.693Z,100986.59
2023-02-14T06:55:29.159Z,100987.78
2023-02-14T06:57:55.588Z,100991.34
2023-02-14T07:00:22.035Z,100983.09
2023-02-14T07:02:48.568Z,100989.28
2023-02-14T07:05:15.084Z,100981.06
2023-02-14T07:07:41.538Z,100987.06
2023-02-14T07:10:08.030Z,100985.13
2023-02-14T07:12:34.460Z,100979.13
2023-02-14T07:15:00.883Z,100984.94
2023-02-14T07:17:27.383Z,100986.94
2023-02-14T07:19:53.858Z,100993.06
2023-02-14T07:22:20.314Z,100978.03
2023-02-14T07:24:46.808Z,100983.59
2023-02-14T07:27:13.249Z,100982.16
2023-02-14T07:29:39.678Z,100977.28
2023-02-14T07:32:06.328Z,100974.69
2023-02-14T07:34:32.827Z,100982.03
2023-02-14T07:36:59.240Z,100988.50
2023-02-14T07:39:25.730Z,100983.13
2023-02-14T07:41:52.159Z,100989.13
2023-02-14T07:44:19.314Z,100981.72
2023-02-14T07:46:45.797Z,100986.47
2023-02-14T07:49:12.228Z,100985.81
2023-02-14T07:51:38.652Z,100989.38
2023-02-14T07:54:05.129Z,100983.53
2023-02-14T07:56:31.589Z,100984.03
2023-02-14T07:58:58.060Z,100988.25
2023-02-14T08:01:24.586Z,100998.28
2023-02-14T08:03:51.012Z,100992.44
2023-02-14T08:06:17.479Z,100981.63
2023-02-14T08:08:43.971Z,100984.19
2023-02-14T08:11:10.389Z,100976.56
2023-02-14T08:13:36.852Z,100973.50
2023-02-14T08:16:03.385Z,100976.13
2023-02-14T08:18:29.852Z,100981.56
2023-02-14T08:20:56.317Z,100983.06
2023-02-14T08:23:22.807Z,100978.81
2023-02-14T08:25:49.234Z,100977.31
2023-02-14T08:28:15.658Z,100981.28
2023-02-14T08:30:42.163Z,100980.06
2023-02-14T08:33:08.600Z,100973.44
2023-02-14T08:35:34.999Z,100982.91
2023-02-14T08:38:01.499Z,100982.03
2023-02-14T08:40:27.907Z,100984.94
2023-02-14T08:42:54.320Z,100990.13
2023-02-14T08:45:20.848Z,100986.94
2023-02-14T08:47:47.248Z,100984.19
2023-02-14T08:50:13.675Z,100986.81
2023-02-14T08:52:40.171Z,100985.81
2023-02-14T08:55:06.646Z,100996.72
2023-02-14T08:57:33.178Z,100995.44
2023-02-14T08:59:59.783Z,100989.75
2023-02-14T09:02:26.251Z,100999.16
2023-02-14T09:04:52.750Z,101003.88
2023-02-14T09:07:19.237Z,100993.53
2023-02-14T09:09:45.662Z,100950.94
2023-02-14T09:12:12.235Z,101006.19
2023-02-14T09:14:38.762Z,101012.34
2023-02-14T09:17:05.239Z,101008.31
2023-02-14T09:19:31.678Z,101013.16
2023-02-14T09:21:58.149Z,101016.72
2023-02-14T09:24:24.573Z,101014.16
2023-02-14T09:26:51.013Z,101012.38
2023-02-14T09:29:17.501Z,100996.50
2023-02-14T09:31:44.008Z,100998.91
2023-02-14T09:34:10.508Z,100999.09
2023-02-14T09:36:36.989Z,100999.91
2023-02-14T09:39:03.443Z,101002.97
2023-02-14T09:41:29.854Z,101005.09
2023-02-14T09:43:56.422Z,101002.16
2023-02-14T09:46:22.927Z,100997.31
2023-02-14T09:48:49.368Z,101008.19
2023-02-14T09:51:15.878Z,101003.34
2023-02-14T09:53:42.303Z,100996.19
2023-02-14T09:56:08.748Z,100999.91
2023-02-14T09:58:35.738Z,100997.97
2023-02-14T10:01:02.506Z,100996.69
2023-02-14T10:03:29.119Z,101002.19
2023-02-14T10:05:55.763Z,101000.38
2023-02-14T10:08:22.188Z,101000.88
2023-02-14T10:10:48.616Z,101005.13
2023-02-14T10:13:15.143Z,101001.72
2023-02-14T10:15:41.622Z,100995.53
2023-02-14T10:18:08.088Z,100992.78
2023-02-14T10:20:34.569Z,100991.69
2023-02-14T10:23:01.187Z,100988.75
2023-02-14T10:25:27.664Z,100982.75
2023-02-14T10:27:54.165Z,100987.44
2023-02-14T10:30:20.685Z,100990.19
2023-02-14T10:32:47.132Z,100992.50
2023-02-14T10:35:13.605Z,100989.91
2023-02-14T10:37:40.098Z,100993.31
2023-02-14T10:40:06.512Z,100987.28
2023-02-14T10:42:33.000Z,100988.09
2023-02-14T10:44:59.458Z,100985.69
2023-02-14T10:47:25.916Z,100976.94
2023-02-14T10:49:52.417Z,100979.19
2023-02-14T10:52:18.868Z,100987.94
2023-02-14T10:54:45.274Z,100979.03
2023-02-14T10:57:11.769Z,100989.56
2023-02-14T10:59:38.174Z,100987.91
2023-02-14T11:02:04.572Z,100990.66
2023-02-14T11:04:31.146Z,100980.31
2023-02-14T11:06:57.551Z,100983.22
2023-02-14T11:09:23.987Z,100987.13
2023-02-14T11:11:50.467Z,100983.69
2023-02-14T11:14:17.427Z,100971.19
2023-02-14T11:16:44.674Z,100966.66
2023-02-14T11:19:11.181Z,100973.28
2023-02-14T11:21:37.612Z,100975.38
2023-02-14T11:24:04.038Z,100957.16
2023-02-14T11:26:30.498Z,100960.53
2023-02-14T11:28:57.008Z,100965.06
2023-02-14T11:31:23.528Z,100960.94
2023-02-14T11:33:50.038Z,100961.78
2023-02-14T11:36:16.474Z,100960.03
2023-02-14T11:38:42.943Z,100954.53
2023-02-14T11:41:09.419Z,100941.84
2023-02-14T11:43:35.851Z,100936.53
2023-02-14T11:46:02.324Z,100946.97
2023-02-14T11:48:38.333Z,100933.81
2023-02-14T11:51:05.513Z,100944.66
2023-02-14T11:53:31.999Z,100940.28
2023-02-14T11:55:58.442Z,100939.31
2023-02-14T11:58:24.893Z,100942.06
2023-02-14T12:00:51.390Z,100933.03
2023-02-14T12:03:17.845Z,100933.91
2023-02-14T12:05:44.298Z,100930.84
2023-02-14T12:08:10.794Z,100925.66
2023-02-14T12:10:37.255Z,100929.34
2023-02-14T12:13:03.700Z,100905.09
2023-02-14T12:15:30.253Z,100926.72
2023-02-14T12:17:56.698Z,100929.84
2023-02-14T12:20:23.141Z,100916.56
2023-02-14T12:22:49.621Z,100918.00
2023-02-14T12:25:16.029Z,100911.84
2023-02-14T12:27:42.457Z,100905.97
2023-02-14T12:30:08.971Z,100909.53
2023-02-14T12:32:35.426Z,100913.28
2023-02-14T12:35:01.855Z,100911.09
2023-02-14T12:37:28.352Z,100905.31
2023-02-14T12:39:54.780Z,100905.66
2023-02-14T12:42:21.187Z,100901.88
2023-02-14T12:44:47.687Z,100900.78
2023-02-14T12:47:14.130Z,100895.97
2023-02-14T12:49:40.560Z,100890.09
2023-02-14T12:52:07.050Z,100891.69
2023-02-14T12:54:33.494Z,100889.69
2023-02-14T12:56:59.941Z,100891.56
2023-02-14T12:59:26.439Z,100888.47
2023-02-14T13:01:52.900Z,100884.81
2023-02-14T13:04:19.360Z,100883.84
2023-02-14T13:06:46.128Z,100884.13
2023-02-14T13:09:12.580Z,100885.19
2023-02-14T13:11:38.993Z,100881.91
2023-02-14T13:14:05.525Z,100890.50
2023-02-14T13:16:31.993Z,100878.59
2023-02-14T13:18:58.436Z,100883.66
2023-02-14T13:21:24.931Z,100882.63
2023-02-14T13:23:51.422Z,100889.13
2023-02-14T13:26:17.858Z,100882.72
2023-02-14T13:28:44.338Z,100870.19
2023-02-14T13:31:10.851Z,100880.28
2023-02-14T13:33:37.342Z,100875.69
2023-02-14T13:36:03.831Z,100873.84
2023-02-14T13:38:30.460Z,100866.75
2023-02-14T13:40:56.930Z,100862.47
2023-02-14T13:43:23.416Z,100867.56
2023-02-14T13:45:49.818Z,100872.38
2023-02-14T13:48:16.225Z,100879.28
2023-02-14T13:50:42.671Z,100876.38
2023-02-14T13:53:09.284Z,100876.00
2023-02-14T13:55:35.683Z,100865.09
2023-02-14T13:58:02.211Z,100872.16
2023-02-14T14:00:28.650Z,100867.41
2023-02-14T14:02:55.103Z,100870.53
2023-02-14T14:05:21.569Z,100875.97
2023-02-14T14:07:47.962Z,100867.84
2023-02-14T14:10:14.372Z,100867.94
2023-02-14T14:12:40.926Z,100875.47
2023-02-14T14:15:07.327Z,100877.47
2023-02-14T14:17:33.866Z,100878.69
2023-02-14T14:20:00.352Z,100864.59
2023-02-14T14:22:26.781Z,100872.91
2023-02-14T14:24:53.198Z,100872.19
2023-02-14T14:27:19.710Z,100876.16
2023-02-14T14:29:46.127Z,100865.88
2023-02-14T14:32:12.923Z,100866.81
2023-02-14T14:34:39.527Z,100869.34
2023-02-14T14:37:06.013Z,100866.97
2023-02-14T14:39:32.537Z,100861.63
2023-02-14T14:41:59.011Z,100858.44
2023-02-14T14:44:25.480Z,100865.94
2023-02-14T14:46:51.904Z,100871.00
2023-02-14T14:49:18.432Z,100873.78
2023-02-14T14:51:44.930Z,100867.91
2023-02-14T14:54:11.376Z,100869.09
2023-02-14T14:56:37.856Z,100870.59
2023-02-14T14:59:04.287Z,100876.47
2023-02-14T15:01:30.737Z,100880.38
2023-02-14T15:03:57.253Z,100874.44
2023-02-14T15:06:23.682Z,100874.03
2023-02-14T15:08:50.118Z,100870.53
2023-02-14T15:11:16.572Z,100874.75
2023-02-14T15:13:43.013Z,100878.69
2023-02-14T15:16:09.451Z,100875.50
2023-02-14T15:18:35.900Z,100872.31
2023-02-14T15:21:02.836Z,100873.16
2023-02-14T15:23:29.492Z,100875.69
2023-02-14T15:25:56.045Z,100865.06
2023-02-14T15:28:22.490Z,100863.81
2023-02-14T15:30:48.998Z,100868.56
2023-02-14T15:33:15.543Z,100867.53
2023-02-14T15:35:41.952Z,100871.13
2023-02-14T15:38:08.395Z,100860.22
2023-02-14T15:40:34.965Z,100865.78
2023-02-14T15:43:01.441Z,100862.78
2023-02-14T15:45:27.966Z,100860.41
2023-02-14T15:47:54.475Z,100867.59
2023-02-14T15:50:20.881Z,100869.56
2023-02-14T15:52:47.264Z,100870.41
2023-02-14T15:55:13.911Z,100868.25
2023-02-14T15:57:40.423Z,100873.22
2023-02-14T16:00:06.843Z,100871.88
2023-02-14T16:02:38.567Z,100873.84
2023-02-14T16:05:04.997Z,100873.88
2023-02-14T16:07:31.446Z,100873.91
2023-02-14T16:09:57.973Z,100868.50
2023-02-14T16:12:24.609Z,100878.38
2023-02-14T16:14:51.076Z,100876.22
2023-02-14T16:17:17.633Z,100868.03
2023-02-14T16:19:44.096Z,100876.56
2023-02-14T16:22:10.539Z,100870.59
2023-02-14T16:24:36.998Z,100880.19
2023-02-14T16:27:03.383Z,100879.41
2023-02-14T16:29:29.760Z,100875.34
2023-02-14T16:32:14.705Z,100877.28
2023-02-14T16:34:42.370Z,100883.59
2023-02-14T16:37:08.863Z,100879.53
2023-02-14T16:39:35.305Z,100879.00
2023-02-14T16:42:01.726Z,100871.66
2023-02-14T16:44:28.225Z,100882.34
2023-02-14T16:46:54.605Z,100878.81
2023-02-14T16:49:21.006Z,100883.50
2023-02-14T16:51:47.441Z,100878.91
2023-02-14T16:54:13.821Z,100882.47
2023-02-14T16:56:40.203Z,100887.13
2023-02-14T16:59:06.681Z,100871.31
2023-02-14T17:01:33.144Z,100878.47
2023-02-14T17:03:59.710Z,100886.38
2023-02-14T17:06:26.246Z,100891.84
2023-02-14T17:08:52.690Z,100892.69
2023-02-14T17:11:19.123Z,100893.53
2023-02-14T17:13:45.656Z,100891.63
2023-02-14T17:16:12.149Z,100894.13
2023-02-14T17:18:38.676Z,100897.66
2023-02-14T17:21:05.170Z,100900.13
2023-02-14T17:23:31.643Z,100898.25
2023-02-14T17:25:58.090Z,100897.19
2023-02-14T17:28:24.538Z,100898.84
2023-02-14T17:30:51.066Z,100898.84
2023-02-14T17:33:17.591Z,100899.41
2023-02-14T17:35:44.088Z,100896.69
2023-02-14T17:38:10.585Z,100899.97
2023-02-14T17:40:36.966Z,100909.81
2023-02-14T17:43:03.461Z,100893.44
2023-02-14T17:45:29.919Z,100901.38
2023-02-14T17:47:56.398Z,100894.03
2023-02-14T17:50:22.892Z,100897.31
2023-02-14T17:52:49.278Z,100897.31
2023-02-14T17:55:15.696Z,100891.88
2023-02-14T17:57:42.138Z,100890.78
2023-02-14T18:00:11.306Z,100890.50
2023-02-14T18:02:40.805Z,100889.69
2023-02-14T18:05:07.397Z,100888.59
2023-02-14T18:07:33.890Z,100893.78
2023-02-14T18:10:00.419Z,100885.34
2023-02-14T18:12:26.952Z,100886.94
2023-02-14T18:14:53.392Z,100887.50
2023-02-14T18:17:19.886Z,100890.78
2023-02-14T18:19:46.495Z,100886.97
2023-02-14T18:22:12.914Z,100890.25
2023-02-14T18:24:39.305Z,100881.50
2023-02-14T18:27:05.848Z,100887.50
2023-02-14T18:29:32.343Z,100879.63
2023-02-14T18:31:58.757Z,100884.50
2023-02-14T18:34:25.222Z,100881.53
2023-02-14T18:36:51.637Z,100876.63
2023-02-14T18:39:18.072Z,100877.97
2023-02-14T18:41:44.565Z,100871.41
2023-02-14T18:44:11.034Z,100876.59
2023-02-14T18:46:37.509Z,100870.06
2023-02-14T18:49:04.027Z,100868.97
2023-02-14T18:51:30.474Z,100869.50
2023-02-14T18:53:56.951Z,100871.69
2023-02-14T18:56:23.529Z,100867.84
2023-02-14T18:58:49.975Z,100858.63
2023-02-14T19:01:16.501Z,100861.88
2023-02-14T19:03:43.080Z,100855.88
2023-02-14T19:06:09.506Z,100859.13
2023-02-14T19:08:35.998Z,100854.22
2023-02-14T19:11:02.786Z,100857.50
2023-02-14T19:13:29.332Z,100861.03
2023-02-14T19:15:55.804Z,100866.19
2023-02-14T19:18:24.188Z,100858.56
2023-02-14T19:20:52.142Z,100858.25
2023-02-14T19:23:18.619Z,100857.97
2023-02-14T19:25:45.195Z,100861.22
2023-02-14T19:28:11.682Z,100858.47
2023-02-14T19:30:38.086Z,100856.59
2023-02-14T19:33:04.635Z,100859.84
2023-02-14T19:35:31.094Z,100852.22
2023-02-14T19:37:57.582Z,100850.00
2023-02-14T19:40:24.141Z,100855.97
2023-02-14T19:42:50.561Z,100847.53
2023-02-14T19:45:17.067Z,100847.25
2023-02-14T19:47:47.333Z,100853.22
2023-02-14T19:50:14.054Z,100853.75
2023-02-14T19:52:40.514Z,100841.78
2023-02-14T19:55:06.969Z,100844.19
2023-02-14T19:57:33.460Z,100847.72
2023-02-14T19:59:59.988Z,100848.25
2023-02-14T20:02:26.587Z,100824.53
2023-02-14T20:04:53.092Z,100843.06
2023-02-14T20:07:19.542Z,100844.66
2023-02-14T20:09:46.088Z,100843.28
2023-02-14T20:12:12.550Z,100844.38
2023-02-14T20:14:51.019Z,100840.56
2023-02-14T20:17:18.318Z,100836.47
2023-02-14T20:19:44.755Z,100841.56
2023-02-14T20:22:11.171Z,100832.63
2023-02-14T20:24:37.590Z,100834.78
2023-02-14T20:27:04.084Z,100833.41
2023-02-14T20:29:30.478Z,100830.13
2023-02-14T20:31:56.926Z,100835.00
2023-02-14T20:34:23.378Z,100831.75
2023-02-14T20:36:49.777Z,100834.72
2023-02-14T20:39:16.212Z,100836.06
2023-02-14T20:41:42.623Z,100830.34
2023-02-14T20:44:09.053Z,100830.63
2023-02-14T20:46:35.564Z,100830.28
2023-02-14T20:49:02.136Z,100832.47
2023-02-14T20:51:28.533Z,100831.91
2023-02-14T20:53:54.984Z,100832.44
2023-02-14T20:56:21.421Z,100830.47
2023-02-14T20:58:47.875Z,100828.00
2023-02-14T21:01:14.365Z,100821.44
2023-02-14T21:03:40.956Z,100820.91
2023-02-14T21:06:07.395Z,100818.97
2023-02-14T21:08:33.824Z,100808.38
2023-02-14T21:11:00.520Z,100814.88
2023-02-14T21:13:27.176Z,100818.91
2023-02-14T21:15:53.617Z,100818.63
2023-02-14T21:18:20.082Z,100815.63
2023-02-14T21:20:46.514Z,100821.06
2023-02-14T21:23:12.954Z,100813.44
2023-02-14T21:25:39.505Z,100811.22
2023-02-14T21:28:05.939Z,100801.97
2023-02-14T21:30:32.358Z,100804.38
2023-02-14T21:32:58.771Z,100800.03
2023-02-14T21:35:25.228Z,100801.88
2023-02-14T21:37:51.719Z,100795.06
2023-02-14T21:40:18.177Z,100792.88
2023-02-14T21:42:44.550Z,100793.41
2023-02-14T21:45:10.979Z,100791.19
2023-02-14T21:47:37.433Z,100799.03
2023-02-14T21:50:03.813Z,100794.94
2023-02-14T21:52:30.272Z,100795.47
2023-02-14T21:54:56.748Z,100790.56
2023-02-14T21:57:23.111Z,100793.53
2023-02-14T21:59:49.584Z,100794.03
2023-02-14T22:02:16.040Z,100789.38
2023-02-14T22:04:42.411Z,100792.34
2023-02-14T22:07:08.806Z,100792.84
2023-02-14T22:09:35.290Z,100784.41
2023-02-14T22:12:01.659Z,100782.22
2023-02-14T22:14:28.119Z,100780.84
2023-02-14T22:16:54.522Z,100782.16
2023-02-14T22:19:20.908Z,100777.81
2023-02-14T22:21:47.339Z,100776.44
2023-02-14T22:24:13.741Z,100779.66
2023-02-14T22:26:40.150Z,100766.38
2023-02-14T22:29:06.589Z,100766.63
2023-02-14T22:31:33.200Z,100766.03
2023-02-14T22:33:59.680Z,100766.88
2023-02-14T22:36:26.127Z,100764.69
2023-02-14T22:38:52.581Z,100770.34
2023-02-14T22:41:18.984Z,100759.78
2023-02-14T22:43:45.439Z,100754.59
2023-02-14T22:46:11.855Z,100754.03
2023-02-14T22:48:38.327Z,100749.13
2023-02-14T22:51:04.819Z,100747.72
2023-02-14T22:53:31.192Z,100756.34
2023-02-14T22:55:57.568Z,100761.44
2023-02-14T22:58:24.007Z,100756.53
2023-02-14T23:00:50.389Z,100748.91
2023-02-14T23:03:16.798Z,100752.13
2023-02-14T23:05:43.235Z,100749.69
2023-02-14T23:08:09.615Z,100747.47
2023-02-14T23:10:36.041Z,100743.63
2023-02-14T23:13:02.477Z,100747.66
2023-02-14T23:15:28.872Z,100719.81
2023-02-14T23:17:55.273Z,100736.78
2023-02-14T23:20:21.718Z,100734.56
2023-02-14T23:22:48.097Z,100738.63
2023-02-14T23:25:14.471Z,100737.22
2023-02-14T23:27:40.902Z,100738.78
2023-02-14T23:30:07.362Z,100733.63
2023-02-14T23:32:33.759Z,100727.91
2023-02-14T23:35:00.211Z,100719.44
2023-02-14T23:37:26.611Z,100726.22
2023-02-14T23:39:53.019Z,100721.31
2023-02-14T23:42:19.449Z,100719.06
2023-02-14T23:44:45.847Z,100713.34
2023-02-14T23:47:12.217Z,100709.50
2023-02-14T23:49:38.652Z,100710.81
2023-02-14T23:52:05.047Z,100703.22
2023-02-14T23:54:31.522Z,100709.13
2023-02-14T23:56:58.027Z,100698.00
2023-02-14T23:59:24.408Z,100708.25
